Sankoumaru 31 — JD2200 — position and weather

sailwx.info

Track history (hours):
 
Tides and Currents Weather Stations Pressure Air Temp Water Temp Dewpoint Dewpoint Depression Visibility Wind Speed Wind Dir Waves Ship Positions

Sankoumaru 31

Last reported at 2014-Sep-18 05:32 UTC. Time now 2014-Sep-19 13:56 UTC.
Position N 34°53' E 139°57'.

Length 75 m; draft 5 m.

Type: Cargo ship. MMSI: 431501842.

Date/timePositionNaut miles runAvg speedWind from/ knotsBaromVisibWave heightAir tempDewpointWater temp
2014-Sep-18 05:32N 34°53' E 139°57'1110.2
2014-Sep-18 04:25N 34°60' E 140°09'6310.4
2014-Sep-17 22:22N 35°54' E 140°46'5 6.4
2014-Sep-17 21:33N 35°55' E 140°40'0 0.0
2014-Sep-16 18:03N 35°56' E 140°40'1 1.6
2014-Sep-16 17:32N 35°55' E 140°41'3 0.7
2014-Sep-16 14:11N 35°57' E 140°42'0 0.1
2014-Sep-16 13:11N 35°57' E 140°42'3 4.3
2014-Sep-16 12:32N 36°00' E 140°43'53 1.3
2014-Sep-14 18:09N 36°52' E 140°59'711.5
2014-Sep-14 17:33N 36°45' E 140°56'1111.2
2014-Sep-14 16:33N 36°34' E 140°52'1111.3
2014-Sep-14 15:33N 36°24' E 140°47'1311.8
2014-Sep-14 14:28N 36°11' E 140°49'1112.0
2014-Sep-14 13:33N 36°00' E 140°51'1312.6
2014-Sep-14 12:33N 35°48' E 140°53'1111.4
2014-Sep-14 11:33N 35°36' E 140°51'1212.2
2014-Sep-14 10:33N 35°27' E 140°42'1312.6
2014-Sep-14 09:29N 35°16' E 140°32'2412.4
2014-Sep-14 07:33N 34°60' E 140°10'1313.0
2014-Sep-14 06:33N 34°53' E 139°57'25910.7
2014-Sep-13 06:24N 34°05' E 134°48'3512.3
2014-Sep-13 03:32N 34°40' E 134°45'6 1.4
2014-Sep-12 23:24N 34°38' E 134°52'1012.1
2014-Sep-12 22:33N 34°36' E 135°04'1312.7
2014-Sep-12 21:33N 34°36' E 135°19'3 3.2
2014-Sep-12 20:31N 34°36' E 135°23'0 0.0
2014-Sep-12 19:31N 34°36' E 135°23'0 0.0
2014-Sep-12 18:20N 34°36' E 135°23'2 2.6
2014-Sep-12 17:33N 34°35' E 135°21'1212.1
2014-Sep-12 16:33N 34°26' E 135°11'1311.8
2014-Sep-12 15:26N 34°15' E 135°03'  
Track history (hours):
 
Tides and Currents Weather Stations Pressure Air Temp Water Temp Dewpoint Dewpoint Depression Visibility Wind Speed Wind Dir Waves Ship Positions

Sankoumaru 31

Last reported at 2014-Sep-18 05:32 UTC. Time now 2014-Sep-19 13:56 UTC.
Position N 34°53' E 139°57'.

Length 75 m; draft 5 m.

Type: Cargo ship. MMSI: 431501842.

Date/timePositionNaut miles runAvg speedWind from/ knotsBaromVisibWave heightAir tempDewpointWater temp
2014-Sep-18 05:32N 34°53' E 139°57'1110.2
2014-Sep-18 04:25N 34°60' E 140°09'6310.4
2014-Sep-17 22:22N 35°54' E 140°46'5 6.4
2014-Sep-17 21:33N 35°55' E 140°40'0 0.0
2014-Sep-16 18:03N 35°56' E 140°40'1 1.6
2014-Sep-16 17:32N 35°55' E 140°41'3 0.7
2014-Sep-16 14:11N 35°57' E 140°42'0 0.1
2014-Sep-16 13:11N 35°57' E 140°42'3 4.3
2014-Sep-16 12:32N 36°00' E 140°43'53 1.3
2014-Sep-14 18:09N 36°52' E 140°59'711.5
2014-Sep-14 17:33N 36°45' E 140°56'1111.2
2014-Sep-14 16:33N 36°34' E 140°52'1111.3
2014-Sep-14 15:33N 36°24' E 140°47'1311.8
2014-Sep-14 14:28N 36°11' E 140°49'1112.0
2014-Sep-14 13:33N 36°00' E 140°51'1312.6
2014-Sep-14 12:33N 35°48' E 140°53'1111.4
2014-Sep-14 11:33N 35°36' E 140°51'1212.2
2014-Sep-14 10:33N 35°27' E 140°42'1312.6
2014-Sep-14 09:29N 35°16' E 140°32'2412.4
2014-Sep-14 07:33N 34°60' E 140°10'1313.0
2014-Sep-14 06:33N 34°53' E 139°57'25910.7
2014-Sep-13 06:24N 34°05' E 134°48'3512.3
2014-Sep-13 03:32N 34°40' E 134°45'6 1.4
2014-Sep-12 23:24N 34°38' E 134°52'1012.1
2014-Sep-12 22:33N 34°36' E 135°04'1312.7
2014-Sep-12 21:33N 34°36' E 135°19'3 3.2
2014-Sep-12 20:31N 34°36' E 135°23'0 0.0
2014-Sep-12 19:31N 34°36' E 135°23'0 0.0
2014-Sep-12 18:20N 34°36' E 135°23'2 2.6
2014-Sep-12 17:33N 34°35' E 135°21'1212.1
2014-Sep-12 16:33N 34°26' E 135°11'1311.8
2014-Sep-12 15:26N 34°15' E 135°03'  

Dump ship's entire track history